Time;durP1;ratioP1;P1;durP2;ratioP2;P2;SDS_P1;SDS_P2;PMS_P1;PMS_P2;Temp;Humidity;BMP_temperature;BMP_pressure;BME280_temperature;BME280_humidity;BME280_pressure;Samples;Min_cycle;Max_cycle;Signal;HPM_P1;HPM_P2
2022/05/04 00:00:01;;;;;;;1.50;1.10;;;11.80;96.60;;;;;;5028453;28;20912;-74
2022/05/04 00:02:28;;;;;;;1.47;1.10;;;11.80;96.50;;;;;;5032860;28;20805;-74
2022/05/04 00:04:56;;;;;;;1.43;1.10;;;11.80;96.70;;;;;;5023218;28;20478;-74
2022/05/04 00:07:23;;;;;;;1.50;1.20;;;11.80;96.50;;;;;;5023172;28;20498;-74
2022/05/04 00:09:50;;;;;;;1.50;1.10;;;11.70;97.00;;;;;;5020043;28;20490;-74
2022/05/04 00:12:17;;;;;;;1.50;1.20;;;11.70;96.70;;;;;;5028301;28;20485;-75
2022/05/04 00:14:43;;;;;;;1.50;1.10;;;11.70;96.50;;;;;;5033644;28;20471;-74
2022/05/04 00:17:10;;;;;;;1.50;1.20;;;11.70;96.80;;;;;;5031163;28;20468;-74
2022/05/04 00:19:37;;;;;;;1.47;1.10;;;11.60;96.90;;;;;;5028108;28;20458;-74
2022/05/04 00:22:05;;;;;;;1.50;1.20;;;11.60;96.60;;;;;;5028245;28;20553;-74
2022/05/04 00:24:32;;;;;;;1.43;1.03;;;11.60;97.10;;;;;;5024273;28;20459;-74
2022/05/04 00:26:59;;;;;;;1.50;1.20;;;11.50;96.90;;;;;;5028039;28;20479;-74
2022/05/04 00:29:26;;;;;;;1.47;1.10;;;11.50;96.80;;;;;;5028966;28;21025;-75
2022/05/04 00:31:52;;;;;;;1.50;1.03;;;11.50;97.20;;;;;;5027786;28;20490;-74
2022/05/04 00:34:19;;;;;;;1.50;1.13;;;11.50;97.10;;;;;;5034017;28;20474;-74
2022/05/04 00:36:46;;;;;;;1.50;1.10;;;11.50;97.00;;;;;;5029056;28;20479;-74
2022/05/04 00:39:14;;;;;;;1.47;1.10;;;11.40;97.10;;;;;;5022792;28;20463;-74
2022/05/04 00:41:41;;;;;;;1.50;1.13;;;11.40;96.50;;;;;;5021219;28;20486;-74
2022/05/04 00:44:08;;;;;;;1.50;1.10;;;11.40;97.10;;;;;;5023075;28;20496;-74
2022/05/04 00:46:37;;;;;;;1.50;1.10;;;11.40;97.00;;;;;;5027893;28;20482;-74
2022/05/04 00:49:04;;;;;;;1.47;1.10;;;11.40;97.10;;;;;;5022287;28;20459;-74
2022/05/04 00:51:31;;;;;;;1.47;1.10;;;11.30;96.80;;;;;;5026760;28;20479;-74
2022/05/04 00:53:58;;;;;;;1.50;1.20;;;11.30;97.10;;;;;;5020870;28;20459;-74
2022/05/04 00:56:26;;;;;;;1.47;1.10;;;11.30;97.50;;;;;;5029918;28;20494;-74
2022/05/04 00:58:55;;;;;;;1.47;1.10;;;11.20;96.90;;;;;;5023698;28;20459;-74
2022/05/04 01:01:22;;;;;;;1.40;1.00;;;11.20;97.60;;;;;;5025493;28;20568;-74
2022/05/04 01:03:49;;;;;;;1.47;1.10;;;11.20;96.70;;;;;;5027127;28;20463;-74
2022/05/04 01:06:16;;;;;;;1.50;1.10;;;11.20;97.30;;;;;;5030083;28;20536;-74
2022/05/04 01:08:43;;;;;;;1.50;1.10;;;11.20;97.40;;;;;;5028843;28;20474;-74
2022/05/04 01:11:10;;;;;;;1.50;1.10;;;11.10;96.90;;;;;;5023105;28;20880;-74
2022/05/04 01:13:38;;;;;;;1.47;1.10;;;11.10;97.70;;;;;;5022717;28;20605;-73
2022/05/04 01:16:05;;;;;;;1.43;1.10;;;11.10;98.00;;;;;;5027681;28;20487;-74
2022/05/04 01:18:32;;;;;;;1.47;1.10;;;11.00;97.90;;;;;;5022396;28;20838;-74
2022/05/04 01:20:58;;;;;;;1.50;1.10;;;11.00;98.20;;;;;;5026842;28;20459;-74
2022/05/04 01:23:28;;;;;;;1.47;1.10;;;11.00;98.00;;;;;;5028792;28;20471;-74
2022/05/04 01:25:55;;;;;;;1.47;1.10;;;11.00;97.40;;;;;;5023872;28;20471;-74
2022/05/04 01:28:22;;;;;;;1.47;1.10;;;11.00;97.50;;;;;;5022496;28;20990;-74
2022/05/04 01:30:48;;;;;;;1.47;1.13;;;10.90;98.10;;;;;;5021038;28;20496;-74
2022/05/04 01:33:15;;;;;;;1.43;1.10;;;10.90;98.20;;;;;;5034568;28;20466;-74
2022/05/04 01:35:42;;;;;;;1.50;1.10;;;10.90;98.10;;;;;;5028007;28;20870;-74
2022/05/04 01:38:08;;;;;;;1.50;1.20;;;10.90;98.00;;;;;;5033906;28;20463;-74
2022/05/04 01:40:36;;;;;;;1.50;1.20;;;10.80;98.00;;;;;;5027504;28;20482;-74
2022/05/04 01:43:03;;;;;;;1.43;1.10;;;10.80;98.00;;;;;;5028804;28;20462;-74
2022/05/04 01:45:30;;;;;;;1.43;1.10;;;10.80;97.80;;;;;;5012862;28;20483;-74
2022/05/04 01:47:57;;;;;;;1.50;1.10;;;10.80;98.20;;;;;;5028223;28;20471;-74
2022/05/04 01:50:23;;;;;;;1.50;1.30;;;10.70;98.20;;;;;;5024574;28;20494;-74
2022/05/04 01:52:50;;;;;;;1.50;1.10;;;10.70;98.00;;;;;;5026477;28;20470;-74
2022/05/04 01:55:18;;;;;;;1.40;1.10;;;10.70;98.20;;;;;;5022453;28;20487;-74
2022/05/04 01:57:46;;;;;;;1.50;1.10;;;10.70;98.20;;;;;;5034506;28;20498;-73
2022/05/04 02:00:13;;;;;;;1.50;1.20;;;10.60;98.20;;;;;;5026833;28;20464;-74
2022/05/04 02:02:40;;;;;;;1.47;1.10;;;10.60;98.20;;;;;;5033156;28;20494;-74
2022/05/04 02:05:08;;;;;;;1.50;1.10;;;10.60;98.20;;;;;;5026495;28;20487;-74
2022/05/04 02:07:35;;;;;;;1.40;1.10;;;10.50;98.20;;;;;;5029458;28;20467;-74
2022/05/04 02:10:03;;;;;;;1.47;1.13;;;10.50;98.20;;;;;;5027292;28;20527;-74
2022/05/04 02:12:30;;;;;;;1.40;1.10;;;10.50;98.20;;;;;;5030533;28;20588;-74
2022/05/04 02:14:58;;;;;;;1.43;1.10;;;10.50;98.20;;;;;;5026379;28;20500;-74
2022/05/04 02:17:25;;;;;;;1.47;1.10;;;10.50;98.20;;;;;;5028189;28;20466;-74
2022/05/04 02:19:52;;;;;;;1.50;1.10;;;10.50;98.20;;;;;;5025994;28;20463;-74
2022/05/04 02:22:19;;;;;;;1.47;1.10;;;10.40;98.20;;;;;;5018264;28;20844;-74
2022/05/04 02:24:45;;;;;;;1.43;1.10;;;10.40;98.20;;;;;;5026539;28;20923;-74
2022/05/04 02:27:12;;;;;;;1.50;1.10;;;10.40;98.20;;;;;;5033185;28;20467;-73
2022/05/04 02:29:39;;;;;;;1.53;1.43;;;10.40;98.20;;;;;;5027024;28;20467;-74
2022/05/04 02:32:08;;;;;;;1.50;1.20;;;10.40;98.20;;;;;;5031923;28;20498;-74
2022/05/04 02:37:54;;;;;;;1.43;1.10;;;10.30;98.20;;;;;;5026407;28;20460;-74
2022/05/04 02:40:07;;;;;;;1.43;1.10;;;10.30;98.20;;;;;;5026644;28;20626;-74
2022/05/04 02:42:34;;;;;;;1.67;1.57;;;10.20;98.20;;;;;;5029184;28;20906;-74
2022/05/04 02:45:01;;;;;;;1.50;1.20;;;10.20;98.20;;;;;;5025681;28;20485;-74
2022/05/04 02:47:29;;;;;;;1.47;1.10;;;10.20;98.20;;;;;;5026669;28;20470;-74
2022/05/04 02:49:55;;;;;;;1.50;1.10;;;10.20;98.20;;;;;;5025618;28;20919;-74
2022/05/04 02:52:22;;;;;;;1.50;1.20;;;10.10;98.20;;;;;;5025444;28;20860;-74
2022/05/04 02:54:49;;;;;;;1.50;1.10;;;10.10;98.20;;;;;;5023692;28;20916;-74
2022/05/04 02:57:16;;;;;;;1.50;1.20;;;10.10;98.20;;;;;;5028654;28;20467;-74
2022/05/04 02:59:42;;;;;;;1.50;1.20;;;10.10;98.20;;;;;;5026273;28;20475;-74
2022/05/04 03:04:55;;;;;;;1.50;1.20;;;10.00;98.20;;;;;;5028280;28;20466;-74
2022/05/04 03:07:22;;;;;;;1.50;1.20;;;10.00;98.20;;;;;;5028046;28;20482;-74
2022/05/04 03:09:49;;;;;;;1.47;1.10;;;9.90;98.20;;;;;;5030116;28;20463;-74
2022/05/04 03:12:15;;;;;;;1.50;1.20;;;9.90;98.20;;;;;;5035381;28;20876;-74
2022/05/04 03:14:43;;;;;;;1.50;1.10;;;9.90;98.20;;;;;;5028811;28;20459;-74
2022/05/04 03:17:09;;;;;;;1.50;1.10;;;9.90;98.20;;;;;;5036152;28;20593;-74
2022/05/04 03:19:36;;;;;;;1.50;1.10;;;9.80;98.20;;;;;;5029229;28;20487;-74
2022/05/04 03:22:05;;;;;;;1.47;1.10;;;9.80;98.20;;;;;;5031782;28;20854;-74
2022/05/04 03:24:32;;;;;;;1.50;1.20;;;9.80;98.20;;;;;;5029339;28;20477;-74
2022/05/04 03:26:59;;;;;;;1.50;1.17;;;9.80;98.20;;;;;;5030133;28;20487;-74
2022/05/04 03:29:25;;;;;;;1.50;1.20;;;9.70;98.20;;;;;;5028987;28;20467;-74
2022/05/04 03:31:52;;;;;;;1.50;1.30;;;9.70;98.20;;;;;;5032084;28;20494;-74
2022/05/04 03:34:19;;;;;;;1.50;1.20;;;9.70;98.20;;;;;;5029383;28;20463;-74
2022/05/04 03:36:46;;;;;;;1.47;1.20;;;9.70;98.20;;;;;;5029144;28;20498;-74
2022/05/04 03:39:14;;;;;;;1.50;1.10;;;9.70;98.20;;;;;;5036962;28;20463;-74
2022/05/04 03:41:41;;;;;;;1.50;1.13;;;9.70;98.20;;;;;;5029062;28;20471;-74
2022/05/04 03:44:08;;;;;;;1.50;1.20;;;9.70;98.20;;;;;;5029033;28;20468;-74
2022/05/04 03:46:43;;;;;;;1.43;1.20;;;9.70;98.20;;;;;;5028840;28;20518;-74
2022/05/04 03:49:11;;;;;;;1.40;1.20;;;9.70;98.20;;;;;;5029197;28;20458;-74
2022/05/04 03:51:38;;;;;;;1.50;1.20;;;9.70;98.20;;;;;;5024772;28;20479;-74
2022/05/04 03:54:05;;;;;;;1.50;1.20;;;9.70;98.20;;;;;;5029103;28;20463;-74
2022/05/04 03:56:33;;;;;;;1.50;1.20;;;9.80;98.20;;;;;;5024089;28;20981;-74
2022/05/04 03:59:00;;;;;;;1.50;1.27;;;9.80;98.20;;;;;;5038431;28;20459;-74
2022/05/04 04:01:27;;;;;;;1.43;1.10;;;9.80;98.20;;;;;;5027285;28;20489;-74
2022/05/04 04:03:54;;;;;;;1.50;1.10;;;9.80;98.20;;;;;;5038103;28;20475;-74
2022/05/04 04:06:21;;;;;;;1.50;1.20;;;9.80;98.20;;;;;;5025416;28;20484;-74
2022/05/04 04:08:48;;;;;;;1.50;1.10;;;9.80;98.20;;;;;;5038826;28;20463;-74
2022/05/04 04:11:15;;;;;;;1.47;1.10;;;9.80;98.20;;;;;;5029857;28;20486;-74
2022/05/04 04:13:44;;;;;;;1.47;1.13;;;9.80;98.20;;;;;;5030413;28;20479;-75
2022/05/04 04:16:10;;;;;;;1.40;1.10;;;9.90;98.20;;;;;;5028849;28;20506;-75
2022/05/04 04:18:37;;;;;;;1.50;1.23;;;9.90;98.20;;;;;;5027463;28;20471;-74
2022/05/04 04:23:48;;;;;;;1.50;1.30;;;9.90;98.20;;;;;;5022923;28;20595;-73
2022/05/04 04:26:15;;;;;;;1.47;1.10;;;9.90;98.20;;;;;;5023172;28;20577;-74
2022/05/04 04:28:43;;;;;;;1.50;1.10;;;10.00;98.20;;;;;;5037038;28;20982;-74
2022/05/04 04:31:10;;;;;;;1.50;1.20;;;10.00;98.20;;;;;;5020533;28;20479;-74
2022/05/04 04:33:37;;;;;;;1.50;1.20;;;10.00;98.20;;;;;;5017189;28;20904;-74
2022/05/04 04:36:05;;;;;;;1.50;1.17;;;10.00;98.20;;;;;;5022603;28;20816;-74
2022/05/04 04:38:32;;;;;;;1.47;1.10;;;10.00;98.20;;;;;;5025868;28;20471;-74
2022/05/04 04:40:59;;;;;;;1.47;1.10;;;10.00;98.20;;;;;;5026676;28;20858;-75
2022/05/04 04:43:26;;;;;;;1.50;1.20;;;10.00;98.20;;;;;;5021424;28;20459;-75
2022/05/04 04:45:54;;;;;;;1.40;1.10;;;10.00;98.20;;;;;;5026961;28;20514;-74
2022/05/04 04:48:21;;;;;;;1.47;1.13;;;10.10;98.20;;;;;;5027311;28;20463;-74
2022/05/04 04:50:49;;;;;;;1.50;1.20;;;10.10;98.20;;;;;;5025257;28;20510;-74
2022/05/04 04:53:16;;;;;;;1.50;1.30;;;10.10;98.20;;;;;;5028394;28;20470;-74
2022/05/04 04:55:44;;;;;;;1.43;1.10;;;10.20;98.20;;;;;;5026842;28;20535;-74
2022/05/04 04:58:11;;;;;;;1.47;1.10;;;10.20;98.20;;;;;;5030270;28;20467;-74
2022/05/04 05:00:37;;;;;;;1.50;1.10;;;10.20;98.20;;;;;;5025227;28;20463;-74
2022/05/04 05:03:06;;;;;;;1.50;1.10;;;10.20;98.20;;;;;;5030641;28;20467;-74
2022/05/04 05:05:34;;;;;;;1.43;1.10;;;10.20;98.20;;;;;;5026945;28;20514;-74
2022/05/04 05:08:00;;;;;;;1.50;1.20;;;10.30;98.20;;;;;;5030836;28;20466;-74
2022/05/04 05:10:27;;;;;;;1.43;1.10;;;10.30;98.20;;;;;;5018590;28;20460;-74
2022/05/04 05:12:54;;;;;;;1.50;1.20;;;10.30;98.20;;;;;;5021772;28;20533;-74
2022/05/04 05:18:07;;;;;;;1.50;1.10;;;10.50;98.20;;;;;;5028721;28;20829;-75
2022/05/04 05:20:34;;;;;;;1.47;1.10;;;10.60;98.20;;;;;;5025565;28;20897;-74
2022/05/04 05:23:02;;;;;;;1.47;1.10;;;10.60;98.20;;;;;;5031067;28;20486;-74
2022/05/04 05:25:30;;;;;;;1.50;1.10;;;10.60;98.20;;;;;;5025630;28;20483;-74
2022/05/04 05:27:57;;;;;;;1.50;1.10;;;10.70;98.20;;;;;;5026752;28;20460;-74
2022/05/04 05:30:24;;;;;;;1.50;1.10;;;10.80;98.20;;;;;;5027839;28;20469;-74
2022/05/04 05:32:51;;;;;;;1.43;1.10;;;10.80;98.20;;;;;;5030622;28;20981;-74
2022/05/04 05:35:19;;;;;;;1.50;1.10;;;10.90;98.20;;;;;;5026807;28;20490;-74
2022/05/04 05:37:46;;;;;;;1.40;1.10;;;11.10;98.20;;;;;;5027983;28;20464;-74
2022/05/04 05:40:13;;;;;;;1.43;1.10;;;11.10;97.70;;;;;;5027243;28;20586;-75
2022/05/04 05:42:40;;;;;;;1.50;1.20;;;11.30;97.90;;;;;;5030286;28;20625;-75
2022/05/04 05:45:08;;;;;;;1.47;1.10;;;11.50;97.30;;;;;;5016864;28;20754;-75
2022/05/04 05:47:35;;;;;;;1.47;1.00;;;11.50;96.70;;;;;;5024785;28;20478;-75
2022/05/04 05:50:02;;;;;;;1.47;1.10;;;11.50;96.30;;;;;;5011991;28;20483;-75
2022/05/04 05:52:30;;;;;;;1.50;1.10;;;11.50;96.80;;;;;;5025306;28;20513;-75
2022/05/04 05:54:58;;;;;;;1.50;1.00;;;11.70;96.90;;;;;;5021570;28;20471;-75
2022/05/04 05:57:25;;;;;;;1.50;1.10;;;11.90;96.30;;;;;;5027811;28;20525;-75
2022/05/04 05:59:52;;;;;;;1.43;1.00;;;12.10;95.60;;;;;;5020659;28;20574;-75
2022/05/04 06:02:19;;;;;;;1.50;1.10;;;12.20;94.70;;;;;;5022548;28;20517;-75
2022/05/04 06:04:46;;;;;;;1.43;1.00;;;12.30;94.80;;;;;;5018015;28;20479;-75
2022/05/04 06:07:13;;;;;;;1.47;1.00;;;12.40;94.40;;;;;;5023118;28;20904;-75
2022/05/04 06:09:41;;;;;;;1.50;1.10;;;12.50;93.90;;;;;;5027018;28;20530;-75
2022/05/04 06:12:09;;;;;;;1.50;1.10;;;12.60;93.20;;;;;;5025197;28;20479;-76
2022/05/04 06:14:36;;;;;;;1.50;1.00;;;12.60;93.10;;;;;;5025000;28;20566;-76
2022/05/04 06:17:03;;;;;;;1.50;1.00;;;12.70;92.80;;;;;;5025817;28;20872;-75
2022/05/04 06:19:30;;;;;;;1.50;1.10;;;12.60;93.10;;;;;;5025437;28;20567;-76
2022/05/04 06:21:58;;;;;;;1.47;1.00;;;12.70;93.00;;;;;;5024594;28;20455;-76
2022/05/04 06:24:25;;;;;;;1.47;1.07;;;12.70;93.10;;;;;;5025389;28;20516;-76
2022/05/04 06:26:53;;;;;;;1.43;1.00;;;12.60;92.40;;;;;;5031348;28;20474;-75
2022/05/04 06:29:20;;;;;;;1.50;1.10;;;12.80;92.50;;;;;;5025618;28;20466;-75
2022/05/04 06:34:31;;;;;;;1.50;1.00;;;13.00;91.90;;;;;;5028613;28;20446;-75
2022/05/04 06:36:58;;;;;;;1.50;1.00;;;13.10;91.50;;;;;;5026920;28;20486;-75
2022/05/04 06:39:25;;;;;;;1.50;1.10;;;13.10;91.40;;;;;;5028210;28;20459;-75
2022/05/04 06:41:53;;;;;;;1.47;1.00;;;13.30;91.20;;;;;;5029229;28;20467;-75
2022/05/04 06:44:20;;;;;;;1.47;1.00;;;13.40;91.10;;;;;;5024827;28;20471;-75
2022/05/04 06:46:46;;;;;;;3.60;2.80;;;13.70;91.00;;;;;;5032190;28;20487;-76
2022/05/04 06:49:13;;;;;;;1.40;1.00;;;13.90;89.80;;;;;;5031885;28;20469;-76
2022/05/04 06:51:40;;;;;;;1.50;1.10;;;14.00;89.40;;;;;;5027836;28;20494;-77
2022/05/04 06:54:08;;;;;;;1.50;1.00;;;14.10;89.40;;;;;;5024291;28;20546;-75
2022/05/04 06:56:35;;;;;;;1.47;0.90;;;14.20;89.20;;;;;;5033678;28;20483;-76
2022/05/04 06:59:03;;;;;;;1.50;1.10;;;14.50;88.50;;;;;;5028544;28;20880;-76
2022/05/04 07:01:30;;;;;;;1.43;1.00;;;14.70;87.70;;;;;;5025895;28;20498;-77
2022/05/04 07:03:57;;;;;;;1.47;0.90;;;14.90;86.00;;;;;;5027036;28;20558;-76
2022/05/04 07:06:24;;;;;;;1.50;0.90;;;14.80;86.60;;;;;;5026836;28;20490;-76
2022/05/04 07:08:52;;;;;;;1.47;1.00;;;14.80;86.30;;;;;;5024432;28;20467;-76
2022/05/04 07:11:18;;;;;;;1.47;0.90;;;14.80;86.80;;;;;;5034180;28;20466;-76
2022/05/04 07:13:45;;;;;;;1.47;0.93;;;14.70;87.20;;;;;;5029007;28;20853;-76
2022/05/04 07:16:14;;;;;;;1.40;0.90;;;14.70;87.40;;;;;;5029167;28;20513;-76
2022/05/04 07:18:41;;;;;;;1.47;1.00;;;14.50;87.80;;;;;;5030637;28;20467;-76
2022/05/04 07:21:08;;;;;;;1.47;1.00;;;14.60;87.60;;;;;;5027785;28;20470;-74
2022/05/04 07:23:34;;;;;;;1.47;0.93;;;14.70;88.00;;;;;;5036090;28;20463;-73
2022/05/04 07:26:01;;;;;;;1.47;0.90;;;14.80;88.30;;;;;;5029283;28;20753;-74
2022/05/04 07:28:28;;;;;;;1.50;1.10;;;14.90;87.40;;;;;;5031598;28;20473;-74
2022/05/04 07:30:55;;;;;;;1.50;1.00;;;15.00;87.40;;;;;;5025566;28;20467;-74
2022/05/04 07:33:23;;;;;;;1.50;0.90;;;15.10;86.70;;;;;;5028092;28;20494;-74
2022/05/04 07:35:50;;;;;;;1.50;0.90;;;15.20;86.50;;;;;;5021407;28;20566;-74
2022/05/04 07:38:16;;;;;;;1.47;0.90;;;15.30;86.80;;;;;;5030583;28;20463;-77
2022/05/04 07:43:28;;;;;;;1.50;1.00;;;15.60;86.10;;;;;;5026570;28;21030;-76
2022/05/04 07:45:55;;;;;;;1.50;0.90;;;15.70;85.20;;;;;;5021203;28;20512;-75
2022/05/04 07:48:24;;;;;;;1.50;0.93;;;15.70;84.90;;;;;;5027164;28;20533;-75
2022/05/04 07:50:51;;;;;;;1.43;0.90;;;15.60;85.40;;;;;;5028025;28;20486;-75
2022/05/04 07:53:17;;;;;;;1.50;1.00;;;15.60;85.40;;;;;;5025833;28;20670;-75
2022/05/04 07:55:44;;;;;;;1.43;0.90;;;15.60;85.00;;;;;;5022761;28;20490;-73
2022/05/04 07:58:12;;;;;;;1.43;0.97;;;15.70;85.60;;;;;;5028263;28;20783;-76
2022/05/04 08:06:20;;;;;;;1.40;0.90;;;15.80;84.60;;;;;;5020741;28;20472;-76
2022/05/04 08:08:46;;;;;;;1.40;0.90;;;16.00;84.20;;;;;;5023360;28;20489;-75
2022/05/04 08:11:13;;;;;;;1.47;0.90;;;16.10;84.30;;;;;;5027043;28;21079;-74
2022/05/04 08:13:40;;;;;;;1.47;1.00;;;16.20;84.20;;;;;;5028648;28;20503;-75
2022/05/04 08:16:07;;;;;;;1.40;0.90;;;16.20;84.40;;;;;;5027641;28;20498;-75
2022/05/04 08:18:36;;;;;;;1.40;0.90;;;16.30;84.20;;;;;;5027348;28;20463;-75
2022/05/04 08:21:03;;;;;;;1.50;1.00;;;16.20;83.70;;;;;;5020654;28;20963;-76
2022/05/04 08:23:29;;;;;;;1.43;0.90;;;16.30;84.10;;;;;;5023932;28;20470;-75
2022/05/04 08:25:56;;;;;;;1.43;0.90;;;16.50;83.40;;;;;;5010321;28;20479;-75
2022/05/04 08:28:23;;;;;;;1.50;0.97;;;16.80;82.70;;;;;;5039259;28;20467;-75
2022/05/04 08:30:50;;;;;;;1.47;0.90;;;16.90;82.30;;;;;;5010964;28;20459;-75
2022/05/04 08:33:18;;;;;;;1.43;0.97;;;17.00;82.40;;;;;;5039983;28;20487;-76
2022/05/04 08:35:46;;;;;;;1.40;0.90;;;17.00;82.00;;;;;;5020541;28;20554;-75
2022/05/04 08:38:13;;;;;;;1.50;0.90;;;17.10;81.80;;;;;;5022483;28;20482;-75
2022/05/04 08:40:40;;;;;;;1.50;1.00;;;17.30;81.10;;;;;;5021610;28;20467;-76
2022/05/04 08:43:07;;;;;;;1.47;0.90;;;17.60;81.40;;;;;;5024713;28;20479;-76
2022/05/04 08:45:37;;;;;;;1.43;0.90;;;17.80;81.30;;;;;;5022489;28;20486;-76
2022/05/04 08:48:04;;;;;;;1.47;1.03;;;17.90;80.80;;;;;;5022678;28;20891;-76
2022/05/04 08:50:33;;;;;;;1.40;0.90;;;18.00;80.70;;;;;;5022797;28;20529;-76
2022/05/04 08:53:02;;;;;;;1.50;0.90;;;18.20;79.90;;;;;;5024061;28;20491;-76
2022/05/04 08:55:29;;;;;;;1.50;0.90;;;18.40;79.80;;;;;;5018191;28;20494;-76
2022/05/04 08:57:56;;;;;;;1.43;0.90;;;18.60;79.10;;;;;;5024739;28;20963;-76
2022/05/04 09:00:24;;;;;;;1.50;0.90;;;18.70;78.40;;;;;;5018755;28;20474;-76
2022/05/04 09:02:51;;;;;;;2.00;1.67;;;18.80;78.60;;;;;;5027939;28;20599;-76
2022/05/04 09:05:20;;;;;;;1.43;0.90;;;19.00;78.80;;;;;;5019346;28;21067;-76
2022/05/04 09:07:49;;;;;;;1.43;0.90;;;19.00;79.00;;;;;;5020108;28;20468;-76
2022/05/04 09:10:19;;;;;;;1.43;0.90;;;19.10;77.50;;;;;;5018593;28;20464;-76
2022/05/04 09:12:48;;;;;;;1.93;1.73;;;19.00;78.30;;;;;;5014537;28;20490;-76
2022/05/04 09:15:23;;;;;;;1.50;0.90;;;19.10;77.70;;;;;;5021408;28;21038;-76
2022/05/04 09:17:58;;;;;;;1.47;0.90;;;19.00;77.40;;;;;;5027806;28;20478;-76
2022/05/04 09:23:12;;;;;;;1.50;0.90;;;19.10;78.40;;;;;;5023907;28;20447;-76
2022/05/04 09:25:40;;;;;;;1.47;0.90;;;19.20;78.30;;;;;;5017833;28;20495;-76
2022/05/04 09:28:12;;;;;;;1.50;0.90;;;19.50;78.70;;;;;;5019573;28;20750;-76
2022/05/04 09:30:45;;;;;;;1.47;0.90;;;19.80;76.30;;;;;;5018285;28;20467;-76
2022/05/04 09:33:13;;;;;;;1.47;0.90;;;20.00;76.20;;;;;;5012520;28;20495;-76
2022/05/04 09:35:41;;;;;;;1.50;0.90;;;20.20;76.10;;;;;;5019398;28;20493;-76
2022/05/04 09:46:33;;;;;;;1.50;0.90;;;21.00;73.10;;;;;;5023404;28;20465;-77
2022/05/04 09:49:09;;;;;;;1.50;1.10;;;21.00;73.10;;;;;;5025577;28;20471;-77
2022/05/04 09:51:36;;;;;;;1.50;0.87;;;21.40;72.20;;;;;;5024485;28;20569;-77
2022/05/04 09:54:14;;;;;;;1.50;0.90;;;21.50;72.70;;;;;;5024092;28;20487;-77
2022/05/04 09:56:42;;;;;;;3.47;3.23;;;21.60;71.40;;;;;;5023128;28;20986;-77
2022/05/04 09:59:09;;;;;;;1.50;1.03;;;21.80;71.80;;;;;;5024888;28;20879;-77
2022/05/04 10:01:37;;;;;;;1.47;0.80;;;22.00;72.60;;;;;;5020334;28;20907;-77
2022/05/04 10:04:05;;;;;;;1.50;0.90;;;22.10;70.80;;;;;;5021655;28;21014;-77
2022/05/04 10:06:33;;;;;;;1.50;0.87;;;22.00;71.40;;;;;;5018629;28;21173;-76
2022/05/04 10:08:59;;;;;;;1.47;0.90;;;22.10;71.30;;;;;;5028777;28;20913;-77
2022/05/04 10:11:28;;;;;;;1.47;0.90;;;22.30;71.40;;;;;;5015060;28;20475;-75
2022/05/04 10:13:58;;;;;;;1.47;0.87;;;22.40;70.70;;;;;;5023429;28;20487;-76
2022/05/04 10:16:26;;;;;;;1.47;0.90;;;22.50;70.60;;;;;;5012464;28;20518;-76
2022/05/04 10:18:54;;;;;;;1.50;1.00;;;22.40;70.60;;;;;;5023821;28;20475;-77
2022/05/04 10:21:24;;;;;;;1.47;0.90;;;22.20;71.00;;;;;;5025394;28;21025;-77
2022/05/04 10:23:55;;;;;;;1.47;0.90;;;21.90;71.10;;;;;;5027873;28;20550;-77
2022/05/04 10:26:32;;;;;;;1.50;1.00;;;21.60;71.80;;;;;;5024336;28;20537;-77
2022/05/04 10:31:53;;;;;;;1.43;0.80;;;21.50;71.40;;;;;;5026123;28;20504;-75
2022/05/04 10:34:20;;;;;;;1.43;0.90;;;21.50;71.50;;;;;;5019720;28;20515;-75
2022/05/04 10:36:48;;;;;;;1.43;0.90;;;21.50;72.00;;;;;;5028362;28;20494;-75
2022/05/04 10:39:21;;;;;;;1.47;0.90;;;21.50;72.80;;;;;;5039649;28;20939;-76
2022/05/04 10:41:48;;;;;;;1.47;0.87;;;21.60;72.70;;;;;;5030008;28;20498;-76
2022/05/04 10:44:17;;;;;;;1.43;0.90;;;21.70;72.80;;;;;;5026354;28;20463;-78
2022/05/04 10:46:49;;;;;;;1.40;0.90;;;21.90;71.60;;;;;;5026290;28;20585;-76
2022/05/04 10:49:16;;;;;;;1.43;0.80;;;22.10;71.80;;;;;;5025184;28;20467;-76
2022/05/04 10:51:46;;;;;;;1.43;0.80;;;22.40;70.60;;;;;;5025973;28;20995;-76
2022/05/04 10:54:15;;;;;;;1.43;0.90;;;22.60;71.10;;;;;;5020972;28;20484;-76
2022/05/04 10:56:43;;;;;;;1.47;0.87;;;22.60;70.00;;;;;;5027218;28;20522;-76
2022/05/04 10:59:11;;;;;;;1.43;0.80;;;22.50;71.40;;;;;;5023767;28;20467;-76
2022/05/04 11:01:40;;;;;;;1.47;0.90;;;22.80;71.00;;;;;;5025012;28;20467;-76
2022/05/04 11:04:22;;;;;;;1.47;0.90;;;22.90;70.00;;;;;;5026614;28;20470;-76
2022/05/04 11:06:55;;;;;;;1.47;0.90;;;23.20;70.90;;;;;;5018337;28;20492;-76
2022/05/04 11:09:25;;;;;;;1.43;0.80;;;23.00;68.40;;;;;;5026199;28;20482;-76
2022/05/04 11:11:53;;;;;;;1.47;0.80;;;23.00;70.20;;;;;;5020075;28;20486;-76
2022/05/04 11:14:22;;;;;;;1.50;0.93;;;23.00;68.70;;;;;;5019706;28;20487;-76
2022/05/04 11:16:51;;;;;;;1.43;0.90;;;22.70;69.30;;;;;;5024218;28;20932;-76
2022/05/04 11:19:19;;;;;;;1.43;0.83;;;22.80;68.70;;;;;;5020372;28;20475;-77
2022/05/04 11:21:46;;;;;;;1.50;1.30;;;23.00;69.60;;;;;;5024421;28;20562;-76
2022/05/04 11:24:15;;;;;;;1.47;0.80;;;23.20;68.80;;;;;;5016616;28;21025;-76
2022/05/04 11:26:43;;;;;;;1.50;0.83;;;23.40;70.00;;;;;;5019901;28;20487;-76
2022/05/04 11:29:12;;;;;;;1.50;0.90;;;23.60;67.50;;;;;;5017630;28;20475;-76
2022/05/04 11:31:43;;;;;;;1.47;0.90;;;23.80;69.00;;;;;;5019337;28;20848;-76
2022/05/04 11:34:14;;;;;;;1.47;0.90;;;23.80;68.50;;;;;;5022165;28;20534;-76
2022/05/04 11:36:44;;;;;;;1.50;0.80;;;24.10;67.90;;;;;;5028199;28;20584;-76
2022/05/04 11:39:13;;;;;;;1.43;0.80;;;24.20;66.20;;;;;;5024827;28;20467;-76
2022/05/04 11:41:40;;;;;;;1.47;0.90;;;24.30;66.00;;;;;;5025259;28;21271;-76
2022/05/04 11:44:08;;;;;;;1.40;0.90;;;24.50;66.90;;;;;;5025123;28;20459;-76
2022/05/04 11:46:34;;;;;;;1.50;0.80;;;24.70;67.30;;;;;;5023600;28;20999;-76
2022/05/04 11:49:01;;;;;;;1.47;0.80;;;24.90;67.00;;;;;;5025016;28;20555;-76
2022/05/04 11:51:29;;;;;;;1.47;0.90;;;24.50;65.20;;;;;;5021724;28;20959;-76
2022/05/04 11:53:56;;;;;;;1.47;0.90;;;24.20;65.50;;;;;;5023726;28;20650;-76
2022/05/04 11:56:23;;;;;;;1.40;0.87;;;24.00;66.10;;;;;;5017464;28;20558;-76
2022/05/04 11:58:52;;;;;;;1.50;0.90;;;23.90;67.50;;;;;;5025073;28;20467;-76
2022/05/04 12:01:19;;;;;;;1.80;1.57;;;23.90;67.20;;;;;;5026411;28;20494;-77
2022/05/04 12:03:46;;;;;;;1.50;1.07;;;23.90;67.70;;;;;;5026844;28;20494;-76
2022/05/04 12:06:14;;;;;;;1.50;0.90;;;24.10;67.60;;;;;;5023736;28;20482;-76
2022/05/04 12:08:43;;;;;;;1.43;0.80;;;24.50;65.00;;;;;;5026889;28;20469;-76
2022/05/04 12:11:10;;;;;;;1.50;0.83;;;24.80;65.50;;;;;;5024488;28;21034;-76
2022/05/04 12:13:39;;;;;;;1.50;0.80;;;25.00;64.30;;;;;;5021853;28;20494;-78
2022/05/04 12:16:07;;;;;;;1.40;0.80;;;25.20;65.90;;;;;;5025028;28;20491;-76
2022/05/04 12:18:36;;;;;;;1.50;0.80;;;25.10;62.10;;;;;;5026604;28;20462;-77
2022/05/04 12:21:07;;;;;;;1.40;0.80;;;25.10;64.80;;;;;;5021632;28;20578;-77
2022/05/04 12:23:35;;;;;;;1.40;0.80;;;25.10;64.30;;;;;;5022801;28;21383;-77
2022/05/04 12:26:04;;;;;;;1.43;0.90;;;25.20;63.40;;;;;;5012540;28;20858;-77
2022/05/04 12:28:31;;;;;;;3.13;1.30;;;25.50;63.30;;;;;;5036986;28;20490;-77
2022/05/04 12:33:43;;;;;;;1.47;0.90;;;25.40;63.50;;;;;;5022360;28;20862;-77
2022/05/04 12:36:12;;;;;;;1.47;0.80;;;25.50;61.40;;;;;;5025660;28;21228;-77
2022/05/04 12:38:45;;;;;;;1.43;0.90;;;25.70;64.10;;;;;;5025711;28;21018;-77
2022/05/04 12:41:17;;;;;;;1.47;0.90;;;25.80;62.80;;;;;;5020566;28;20472;-77
2022/05/04 12:43:46;;;;;;;1.50;0.80;;;25.90;62.40;;;;;;5023918;28;20993;-77
2022/05/04 12:46:15;;;;;;;1.47;0.80;;;25.70;60.10;;;;;;5023121;28;20967;-77
2022/05/04 12:48:43;;;;;;;1.47;0.80;;;25.80;60.50;;;;;;5025890;28;20896;-77
2022/05/04 12:51:10;;;;;;;1.43;0.80;;;25.80;60.70;;;;;;5023478;28;20973;-77
2022/05/04 12:53:39;;;;;;;1.43;0.83;;;25.70;60.70;;;;;;5019072;28;20490;-77
2022/05/04 12:58:52;;;;;;;1.43;0.90;;;25.80;59.00;;;;;;5022060;28;20466;-77
2022/05/04 13:01:22;;;;;;;1.50;0.80;;;25.60;60.10;;;;;;5022537;28;20461;-76
2022/05/04 13:03:50;;;;;;;1.47;0.80;;;25.50;59.30;;;;;;5023260;28;20463;-77
2022/05/04 13:06:17;;;;;;;1.40;0.90;;;25.40;57.60;;;;;;5025286;28;20477;-76
2022/05/04 13:08:44;;;;;;;1.50;0.90;;;25.40;59.00;;;;;;5025626;28;21001;-76
2022/05/04 13:11:10;;;;;;;1.40;0.80;;;25.20;58.80;;;;;;5025977;28;20470;-77
2022/05/04 13:13:37;;;;;;;1.40;0.80;;;25.20;60.20;;;;;;5024595;28;20578;-76
2022/05/04 13:16:06;;;;;;;1.40;0.80;;;25.10;59.80;;;;;;5014901;28;20501;-75
2022/05/04 13:18:32;;;;;;;1.43;0.80;;;25.20;60.00;;;;;;5023394;28;20473;-76
2022/05/04 13:20:59;;;;;;;1.40;0.80;;;25.40;58.40;;;;;;5023043;28;20467;-77
2022/05/04 13:23:26;;;;;;;1.47;0.90;;;25.50;59.40;;;;;;5021646;28;20467;-76
2022/05/04 13:25:53;;;;;;;1.40;0.80;;;25.40;57.60;;;;;;5021750;28;20483;-76
2022/05/04 13:28:19;;;;;;;1.40;0.80;;;25.10;58.00;;;;;;5024404;28;20475;-76
2022/05/04 13:30:46;;;;;;;1.40;0.80;;;24.80;59.50;;;;;;5018702;28;20834;-77